createdAt,value
2017-03-15T00:00:52.642Z,9.99
2017-03-15T00:01:52.939Z,9.93
2017-03-15T00:02:52.924Z,9.94
2017-03-15T00:03:52.593Z,9.86
2017-03-15T00:04:52.901Z,9.89
2017-03-15T00:05:52.875Z,9.89
2017-03-15T00:06:52.888Z,9.85
2017-03-15T00:07:52.840Z,9.85
2017-03-15T00:08:52.830Z,9.91
2017-03-15T00:09:52.804Z,9.76
2017-03-15T00:10:52.841Z,9.75
2017-03-15T00:11:52.779Z,9.75
2017-03-15T00:12:52.763Z,9.79
2017-03-15T00:13:52.750Z,9.82
2017-03-15T00:14:52.744Z,9.7
2017-03-15T00:15:52.728Z,9.75
2017-03-15T00:16:52.713Z,9.73
2017-03-15T00:17:52.685Z,9.76
2017-03-15T00:18:52.043Z,9.73
2017-03-15T00:19:52.336Z,9.64
2017-03-15T00:20:52.648Z,9.73
2017-03-15T00:21:52.314Z,9.68
2017-03-15T00:22:52.619Z,9.64
2017-03-15T00:23:52.280Z,9.63
2017-03-15T00:24:52.266Z,9.63
2017-03-15T00:25:52.248Z,9.58
2017-03-15T00:26:52.228Z,9.58
2017-03-15T00:27:52.216Z,9.73
2017-03-15T00:28:52.515Z,9.7
2017-03-15T00:29:52.503Z,9.71
2017-03-15T00:30:52.169Z,9.67
2017-03-15T00:31:52.152Z,9.63
2017-03-15T00:32:52.151Z,9.63
2017-03-15T00:33:52.433Z,9.64
2017-03-15T00:34:52.415Z,9.6
2017-03-15T00:35:52.090Z,9.56
2017-03-15T00:36:52.121Z,9.58
2017-03-15T00:37:52.420Z,9.61
2017-03-15T00:38:52.041Z,9.64
2017-03-15T00:39:52.023Z,9.58
2017-03-15T00:40:52.324Z,9.6
2017-03-15T00:41:52.306Z,9.67
2017-03-15T00:42:52.288Z,9.57
2017-03-15T00:43:52.273Z,9.64
2017-03-15T00:44:52.255Z,9.64
2017-03-15T00:45:51.980Z,9.73
2017-03-15T00:46:52.222Z,9.75
2017-03-15T00:47:51.895Z,9.7
2017-03-15T00:48:52.196Z,9.7
2017-03-15T00:49:52.175Z,9.75
2017-03-15T00:50:52.160Z,9.73
2017-03-15T00:51:51.825Z,9.71
2017-03-15T00:52:52.133Z,9.73
2017-03-15T00:53:52.113Z,9.68
2017-03-15T00:54:52.097Z,9.71
2017-03-15T00:55:51.795Z,9.75
2017-03-15T00:56:51.435Z,9.71
2017-03-15T00:57:52.052Z,9.71
2017-03-15T00:58:52.034Z,9.7
2017-03-15T00:59:51.701Z,9.79
2017-03-15T01:00:52.002Z,9.86
2017-03-15T01:01:51.984Z,9.91
2017-03-15T01:02:51.970Z,9.86
2017-03-15T01:03:51.953Z,9.86
2017-03-15T01:04:51.938Z,9.94
2017-03-15T01:05:51.919Z,9.86
2017-03-15T01:06:51.904Z,10
2017-03-15T01:07:51.570Z,10
2017-03-15T01:08:51.872Z,10.06
2017-03-15T01:09:51.854Z,9.97
2017-03-15T01:10:51.842Z,9.94
2017-03-15T01:11:51.829Z,9.97
2017-03-15T01:12:51.698Z,9.94
2017-03-15T01:13:51.790Z,10.03
2017-03-15T01:14:51.467Z,9.93
2017-03-15T01:15:51.761Z,9.83
2017-03-15T01:16:51.754Z,9.85
2017-03-15T01:17:51.729Z,9.86
2017-03-15T01:18:51.722Z,9.81
2017-03-15T01:19:51.701Z,9.88
2017-03-15T01:20:51.374Z,9.86
2017-03-15T01:21:51.671Z,9.83
2017-03-15T01:22:51.650Z,9.86
2017-03-15T01:23:51.640Z,9.83
2017-03-15T01:24:51.613Z,9.86
2017-03-15T01:25:51.606Z,9.93
2017-03-15T01:26:51.589Z,9.94
2017-03-15T01:27:51.573Z,9.88
2017-03-15T01:28:51.577Z,9.94
2017-03-15T01:29:51.541Z,9.91
2017-03-15T01:30:51.524Z,9.88
2017-03-15T01:31:51.505Z,9.93
2017-03-15T01:32:51.491Z,9.88
2017-03-15T01:33:51.204Z,9.91
2017-03-15T01:34:51.469Z,9.99
2017-03-15T01:35:51.454Z,9.89
2017-03-15T01:36:51.121Z,9.97
2017-03-15T01:37:51.412Z,9.91
2017-03-15T01:38:51.091Z,9.93
2017-03-15T01:39:51.385Z,9.94
2017-03-15T01:40:51.374Z,9.99
2017-03-15T01:41:51.355Z,10.01
2017-03-15T01:42:51.455Z,10.04
2017-03-15T01:43:51.389Z,10.01
2017-03-15T01:44:51.387Z,9.97
2017-03-15T01:45:51.031Z,10.03
2017-03-15T01:46:51.273Z,10.03
2017-03-15T01:47:50.953Z,10
2017-03-15T01:48:51.246Z,9.99
2017-03-15T01:49:51.225Z,10.09
2017-03-15T01:50:51.210Z,10.03
2017-03-15T01:51:50.882Z,10.1
2017-03-15T01:52:51.181Z,10.07
2017-03-15T01:53:51.166Z,10.14
2017-03-15T01:54:50.842Z,10.04
2017-03-15T01:55:50.859Z,10.03
2017-03-15T01:56:51.121Z,10.03
2017-03-15T01:57:51.109Z,10.04
2017-03-15T01:58:50.772Z,10.1
2017-03-15T01:59:50.757Z,10.15
2017-03-15T02:00:50.744Z,10.07
2017-03-15T02:01:51.065Z,10.15
2017-03-15T02:02:51.030Z,10.09
2017-03-15T02:03:51.022Z,10.06
2017-03-15T02:04:51.003Z,10.04
2017-03-15T02:05:50.981Z,10.04
2017-03-15T02:06:50.964Z,10.07
2017-03-15T02:07:50.948Z,10.03
2017-03-15T02:08:50.930Z,10.03
2017-03-15T02:09:50.921Z,10.12
2017-03-15T02:10:50.906Z,10.24
2017-03-15T02:11:50.899Z,10.18
2017-03-15T02:12:50.876Z,10.17
2017-03-15T02:13:50.858Z,10.18
2017-03-15T02:14:50.845Z,10.18
2017-03-15T02:15:50.860Z,10.18
2017-03-15T02:16:50.810Z,10.15
2017-03-15T02:17:50.796Z,10.18
2017-03-15T02:18:50.782Z,10.17
2017-03-15T02:19:50.768Z,10.17
2017-03-15T02:20:50.748Z,10.21
2017-03-15T02:21:50.739Z,10.21
2017-03-15T02:22:50.770Z,10.21
2017-03-15T02:23:50.735Z,10.19
2017-03-15T02:24:50.694Z,10.18
2017-03-15T02:25:50.678Z,10.17
2017-03-15T02:26:50.342Z,10.21
2017-03-15T02:27:50.641Z,10.18
2017-03-15T02:28:50.624Z,10.21
2017-03-15T02:29:50.609Z,10.17
2017-03-15T02:30:50.596Z,10.21
2017-03-15T02:31:50.602Z,10.22
2017-03-15T02:32:50.247Z,10.19
2017-03-15T02:33:50.239Z,10.25
2017-03-15T02:34:50.214Z,10.24
2017-03-15T02:35:50.517Z,10.22
2017-03-15T02:36:50.186Z,10.21
2017-03-15T02:37:50.489Z,10.14
2017-03-15T02:38:50.153Z,10.22
2017-03-15T02:39:50.143Z,10.25
2017-03-15T02:40:50.126Z,10.24
2017-03-15T02:41:50.461Z,10.14
2017-03-15T02:42:50.101Z,10.33
2017-03-15T02:43:50.388Z,10.28
2017-03-15T02:44:50.374Z,10.26
2017-03-15T02:45:50.361Z,10.17
2017-03-15T02:46:50.352Z,10.15
2017-03-15T02:47:50.338Z,10.25
2017-03-15T02:48:50.318Z,10.26
2017-03-15T02:49:50.299Z,10.21
2017-03-15T02:50:50.291Z,10.14
2017-03-15T02:51:50.268Z,10.19
2017-03-15T02:52:50.253Z,10.18
2017-03-15T02:53:50.240Z,10.17
2017-03-15T02:54:50.229Z,10.21
2017-03-15T02:55:50.207Z,10.24
2017-03-15T02:56:50.191Z,10.22
2017-03-15T02:57:50.180Z,10.19
2017-03-15T02:58:49.851Z,10.3
2017-03-15T02:59:50.152Z,10.17
2017-03-15T03:00:49.823Z,10.18
2017-03-15T03:01:49.804Z,10.18
2017-03-15T03:02:50.108Z,10.21
2017-03-15T03:03:49.776Z,10.19
2017-03-15T03:04:49.756Z,10.21
2017-03-15T03:05:49.750Z,10.18
2017-03-15T03:06:50.052Z,10.19
2017-03-15T03:07:49.771Z,10.17
2017-03-15T03:08:49.761Z,10.21
2017-03-15T03:09:50.019Z,10.19
2017-03-15T03:10:49.676Z,10.21
2017-03-15T03:11:49.976Z,10.19
2017-03-15T03:12:50.353Z,10.18
2017-03-15T03:13:49.627Z,10.19
2017-03-15T03:14:49.925Z,10.22
2017-03-15T03:15:49.592Z,10.18
2017-03-15T03:16:49.889Z,10.18
2017-03-15T03:17:49.884Z,10.24
2017-03-15T03:18:49.862Z,10.19
2017-03-15T03:19:49.842Z,10.22
2017-03-15T03:20:49.517Z,10.14
2017-03-15T03:21:49.812Z,10.21
2017-03-15T03:22:49.799Z,10.1
2017-03-15T03:23:49.465Z,9.97
2017-03-15T03:24:49.767Z,10.07
2017-03-15T03:25:49.437Z,10
2017-03-15T03:26:49.731Z,10.04
2017-03-15T03:27:49.410Z,10.04
2017-03-15T03:28:49.402Z,10.04
2017-03-15T03:29:49.689Z,10.07
2017-03-15T03:30:49.364Z,10.12
2017-03-15T03:31:49.665Z,10.03
2017-03-15T03:32:49.325Z,10.03
2017-03-15T03:33:49.623Z,10.06
2017-03-15T03:34:49.610Z,10.04
2017-03-15T03:35:49.591Z,10.03
2017-03-15T03:36:49.576Z,10.1
2017-03-15T03:37:49.570Z,10.1
2017-03-15T03:38:49.550Z,10
2017-03-15T03:39:49.529Z,10
2017-03-15T03:40:49.514Z,10.07
2017-03-15T03:41:49.551Z,10
2017-03-15T03:42:49.490Z,10.06
2017-03-15T03:43:49.473Z,10.04
2017-03-15T03:44:49.465Z,10.03
2017-03-15T03:45:49.441Z,10.04
2017-03-15T03:46:49.442Z,10
2017-03-15T03:47:49.413Z,10.01
2017-03-15T03:48:49.402Z,10.04
2017-03-15T03:49:49.380Z,10.04
2017-03-15T03:50:49.365Z,10
2017-03-15T03:51:49.351Z,9.96
2017-03-15T03:52:49.335Z,9.97
2017-03-15T03:53:49.346Z,9.94
2017-03-15T03:54:49.312Z,9.99
2017-03-15T03:55:49.291Z,9.97
2017-03-15T03:56:49.265Z,10
2017-03-15T03:57:48.938Z,10.03
2017-03-15T03:58:49.244Z,9.93
2017-03-15T03:59:48.915Z,10
2017-03-15T04:00:49.208Z,9.96
2017-03-15T04:01:48.888Z,9.96
2017-03-15T04:02:49.181Z,9.97
2017-03-15T04:03:49.162Z,10
2017-03-15T04:04:49.148Z,9.99
2017-03-15T04:05:49.132Z,10
2017-03-15T04:06:49.119Z,9.97
2017-03-15T04:07:49.103Z,9.94
2017-03-15T04:08:49.087Z,9.91
2017-03-15T04:09:49.067Z,9.93
2017-03-15T04:10:49.099Z,9.86
2017-03-15T04:11:48.731Z,9.99
2017-03-15T04:12:49.039Z,9.93
2017-03-15T04:13:49.012Z,9.93
2017-03-15T04:14:48.994Z,9.89
2017-03-15T04:15:48.985Z,10
2017-03-15T04:16:48.959Z,9.97
2017-03-15T04:17:48.949Z,9.94
2017-03-15T04:18:48.934Z,9.91
2017-03-15T04:19:48.914Z,9.91
2017-03-15T04:20:48.952Z,9.91
2017-03-15T04:21:48.278Z,9.91
2017-03-15T04:22:48.882Z,10.06
2017-03-15T04:23:48.856Z,9.97
2017-03-15T04:24:48.541Z,10
2017-03-15T04:25:48.859Z,9.94
2017-03-15T04:26:48.810Z,10.03
2017-03-15T04:27:48.486Z,10
2017-03-15T04:28:48.784Z,10.04
2017-03-15T04:29:48.767Z,9.91
2017-03-15T04:30:48.490Z,9.93
2017-03-15T04:31:48.732Z,9.96
2017-03-15T04:32:48.723Z,9.91
2017-03-15T04:33:48.709Z,9.91
2017-03-15T04:34:48.702Z,9.91
2017-03-15T04:35:48.364Z,9.85
2017-03-15T04:36:48.660Z,9.97
2017-03-15T04:37:48.650Z,10
2017-03-15T04:38:48.626Z,9.91
2017-03-15T04:39:48.611Z,9.86
2017-03-15T04:40:48.285Z,9.93
2017-03-15T04:41:48.579Z,9.93
2017-03-15T04:42:48.572Z,9.93
2017-03-15T04:43:48.240Z,9.94
2017-03-15T04:44:48.533Z,9.99
2017-03-15T04:45:48.552Z,9.96
2017-03-15T04:46:48.199Z,9.94
2017-03-15T04:47:48.491Z,9.85
2017-03-15T04:48:48.475Z,9.85
2017-03-15T04:49:48.458Z,9.82
2017-03-15T04:50:48.143Z,9.86
2017-03-15T04:51:48.423Z,9.85
2017-03-15T04:52:48.409Z,9.93
2017-03-15T04:53:48.393Z,9.88
2017-03-15T04:54:48.397Z,9.85
2017-03-15T04:55:48.377Z,9.85
2017-03-15T04:56:48.040Z,9.78
2017-03-15T04:57:48.333Z,9.78
2017-03-15T04:58:48.313Z,9.79
2017-03-15T04:59:48.304Z,9.81
2017-03-15T05:00:48.304Z,9.81
2017-03-15T05:01:47.957Z,9.78
2017-03-15T05:02:47.630Z,9.68
2017-03-15T05:03:48.239Z,9.71
2017-03-15T05:04:48.224Z,9.73
2017-03-15T05:05:47.903Z,9.66
2017-03-15T05:06:48.197Z,9.66
2017-03-15T05:07:48.236Z,9.64
2017-03-15T05:08:48.177Z,9.57
2017-03-15T05:09:48.156Z,9.58
2017-03-15T05:10:47.820Z,9.6
2017-03-15T05:11:47.808Z,9.57
2017-03-15T05:12:48.100Z,9.57
2017-03-15T05:13:47.771Z,9.57
2017-03-15T05:14:48.069Z,9.56
2017-03-15T05:15:48.056Z,9.57
2017-03-15T05:16:48.042Z,9.48
2017-03-15T05:17:48.038Z,9.5
2017-03-15T05:18:48.003Z,9.46
2017-03-15T05:19:48.007Z,9.43
2017-03-15T05:20:47.976Z,9.46
2017-03-15T05:21:47.960Z,9.48
2017-03-15T05:22:47.948Z,9.43
2017-03-15T05:23:47.934Z,9.45
2017-03-15T05:24:47.917Z,9.39
2017-03-15T05:25:47.897Z,9.39
2017-03-15T05:26:47.883Z,9.34
2017-03-15T05:27:47.874Z,9.5
2017-03-15T05:28:47.849Z,9.43
2017-03-15T05:29:47.830Z,9.42
2017-03-15T05:30:47.823Z,9.38
2017-03-15T05:31:47.815Z,9.39
2017-03-15T05:32:47.788Z,9.4
2017-03-15T05:33:47.774Z,9.45
2017-03-15T05:34:47.757Z,9.43
2017-03-15T05:35:47.742Z,9.35
2017-03-15T05:36:47.413Z,9.35
2017-03-15T05:37:47.398Z,9.34
2017-03-15T05:38:47.380Z,9.35
2017-03-15T05:39:47.728Z,9.38
2017-03-15T05:40:47.662Z,9.39
2017-03-15T05:41:47.333Z,9.32
2017-03-15T05:42:47.638Z,9.38
2017-03-15T05:43:47.615Z,9.35
2017-03-15T05:44:47.599Z,9.31
2017-03-15T05:45:47.278Z,9.32
2017-03-15T05:46:47.257Z,9.3
2017-03-15T05:47:47.550Z,9.3
2017-03-15T05:48:47.535Z,9.3
2017-03-15T05:49:47.521Z,9.24
2017-03-15T05:50:47.217Z,9.27
2017-03-15T05:51:47.488Z,9.32
2017-03-15T05:52:47.476Z,9.38
2017-03-15T05:53:47.143Z,9.4
2017-03-15T05:54:47.132Z,9.35
2017-03-15T05:55:47.111Z,9.31
2017-03-15T05:56:47.411Z,9.35
2017-03-15T05:57:47.392Z,9.42
2017-03-15T05:58:47.064Z,9.4
2017-03-15T05:59:47.369Z,9.35
2017-03-15T06:00:47.346Z,9.38
2017-03-15T06:01:47.332Z,9.35
2017-03-15T06:02:47.314Z,9.4
2017-03-15T06:03:47.303Z,9.42
2017-03-15T06:04:47.280Z,9.34
2017-03-15T06:05:47.269Z,9.4
2017-03-15T06:06:47.255Z,9.35
2017-03-15T06:07:46.922Z,9.5
2017-03-15T06:08:47.225Z,9.46
2017-03-15T06:09:47.205Z,9.43
2017-03-15T06:10:47.195Z,9.46
2017-03-15T06:11:47.177Z,9.46
2017-03-15T06:12:47.160Z,9.4
2017-03-15T06:13:47.144Z,9.4
2017-03-15T06:14:46.813Z,9.45
2017-03-15T06:15:47.112Z,9.43
2017-03-15T06:16:47.092Z,9.53
2017-03-15T06:17:46.801Z,9.57
2017-03-15T06:18:47.084Z,9.58
2017-03-15T06:19:47.055Z,9.6
2017-03-15T06:20:47.034Z,9.53
2017-03-15T06:21:47.029Z,9.57
2017-03-15T06:22:46.700Z,9.63
2017-03-15T06:23:47.008Z,9.58
2017-03-15T06:24:46.971Z,9.58
2017-03-15T06:25:46.956Z,9.66
2017-03-15T06:26:46.623Z,9.66
2017-03-15T06:27:46.927Z,9.63
2017-03-15T06:28:46.914Z,9.68
2017-03-15T06:29:46.907Z,9.73
2017-03-15T06:30:46.879Z,9.75
2017-03-15T06:31:46.862Z,9.75
2017-03-15T06:32:46.852Z,9.76
2017-03-15T06:33:46.841Z,9.7
2017-03-15T06:34:46.812Z,9.73
2017-03-15T06:35:46.841Z,9.7
2017-03-15T06:36:46.787Z,9.7
2017-03-15T06:37:46.771Z,9.79
2017-03-15T06:38:46.754Z,9.81
2017-03-15T06:39:46.741Z,9.86
2017-03-15T06:40:46.723Z,9.88
2017-03-15T06:41:46.711Z,9.88
2017-03-15T06:42:46.695Z,9.82
2017-03-15T06:43:46.369Z,9.93
2017-03-15T06:44:46.695Z,9.96
2017-03-15T06:45:46.649Z,9.94
2017-03-15T06:46:46.632Z,10
2017-03-15T06:47:46.299Z,9.91
2017-03-15T06:48:46.611Z,9.94
2017-03-15T06:49:46.281Z,9.94
2017-03-15T06:50:46.574Z,9.99
2017-03-15T06:51:46.572Z,9.99
2017-03-15T06:52:46.542Z,10
2017-03-15T06:53:46.529Z,10
2017-03-15T06:54:46.514Z,10.03
2017-03-15T06:55:46.498Z,10.06
2017-03-15T06:56:46.484Z,10.09
2017-03-15T06:57:46.478Z,10.09
2017-03-15T06:58:46.535Z,10.04
2017-03-15T06:59:46.124Z,10.06
2017-03-15T07:00:46.420Z,10.01
2017-03-15T07:01:46.409Z,10.07
2017-03-15T07:02:46.400Z,10.09
2017-03-15T07:03:46.377Z,10.1
2017-03-15T07:04:46.365Z,10.07
2017-03-15T07:05:46.345Z,10.1
2017-03-15T07:06:46.339Z,10.06
2017-03-15T07:07:46.317Z,10.12
2017-03-15T07:08:46.298Z,10.15
2017-03-15T07:09:46.288Z,10.12
2017-03-15T07:10:45.991Z,10.07
2017-03-15T07:11:46.268Z,10.14
2017-03-15T07:12:46.247Z,10.09
2017-03-15T07:13:45.913Z,10.07
2017-03-15T07:14:46.214Z,10.22
2017-03-15T07:15:46.198Z,10.1
2017-03-15T07:16:46.180Z,10.22
2017-03-15T07:17:46.166Z,10.24
2017-03-15T07:18:46.164Z,10.17
2017-03-15T07:19:45.824Z,10.22
2017-03-15T07:20:46.170Z,10.24
2017-03-15T07:21:46.110Z,10.32
2017-03-15T07:22:46.102Z,10.3
2017-03-15T07:23:45.453Z,10.21
2017-03-15T07:24:46.067Z,10.26
2017-03-15T07:25:45.745Z,10.36
2017-03-15T07:26:46.038Z,10.32
2017-03-15T07:27:46.025Z,10.3
2017-03-15T07:28:46.007Z,10.44
2017-03-15T07:29:45.992Z,10.33
2017-03-15T07:30:45.663Z,10.39
2017-03-15T07:31:45.969Z,10.47
2017-03-15T07:32:45.954Z,10.47
2017-03-15T07:33:45.942Z,10.58
2017-03-15T07:34:45.938Z,10.55
2017-03-15T07:35:45.906Z,10.55
2017-03-15T07:36:45.893Z,10.62
2017-03-15T07:37:45.879Z,10.68
2017-03-15T07:38:45.242Z,10.76
2017-03-15T07:39:45.220Z,10.73
2017-03-15T07:40:45.832Z,10.7
2017-03-15T07:41:45.818Z,10.78
2017-03-15T07:42:45.806Z,10.78
2017-03-15T07:43:45.794Z,10.78
2017-03-15T07:44:45.778Z,10.78
2017-03-15T07:45:45.759Z,10.77
2017-03-15T07:46:45.753Z,10.81
2017-03-15T07:47:45.743Z,10.76
2017-03-15T07:48:45.094Z,10.86
2017-03-15T07:49:45.403Z,10.84
2017-03-15T07:50:45.697Z,10.92
2017-03-15T07:51:45.677Z,10.96
2017-03-15T07:52:45.351Z,11.02
2017-03-15T07:53:45.644Z,10.95
2017-03-15T07:54:45.637Z,11.02
2017-03-15T07:55:45.311Z,11.11
2017-03-15T07:56:45.297Z,11.02
2017-03-15T07:57:45.281Z,11.09
2017-03-15T07:58:45.582Z,11.03
2017-03-15T07:59:45.303Z,11.03
2017-03-15T08:00:45.553Z,11.07
2017-03-15T08:01:45.543Z,11.01
2017-03-15T08:02:45.523Z,11.06
2017-03-15T08:03:45.514Z,11.01
2017-03-15T08:04:45.503Z,10.99
2017-03-15T08:05:45.483Z,11.1
2017-03-15T08:06:45.177Z,11.1
2017-03-15T08:07:45.457Z,11.13
2017-03-15T08:08:45.132Z,11.13
2017-03-15T08:09:45.432Z,11.1
2017-03-15T08:10:45.107Z,11.21
2017-03-15T08:11:45.411Z,11.1
2017-03-15T08:12:45.395Z,11.17
2017-03-15T08:13:45.376Z,11.09
2017-03-15T08:14:45.370Z,11.21
2017-03-15T08:15:45.383Z,11.2
2017-03-15T08:16:45.345Z,11.2
2017-03-15T08:17:45.359Z,11.28
2017-03-15T08:18:45.307Z,11.28
2017-03-15T08:19:45.313Z,11.29
2017-03-15T08:20:45.281Z,11.27
2017-03-15T08:21:45.268Z,11.29
2017-03-15T08:22:45.253Z,11.29
2017-03-15T08:23:45.248Z,11.29
2017-03-15T08:24:45.238Z,11.32
2017-03-15T08:25:45.222Z,11.29
2017-03-15T08:26:45.202Z,11.28
2017-03-15T08:27:45.196Z,11.31
2017-03-15T08:28:45.196Z,11.36
2017-03-15T08:29:45.215Z,11.34
2017-03-15T08:30:45.157Z,11.41
2017-03-15T08:31:45.132Z,11.41
2017-03-15T08:32:45.117Z,11.44
2017-03-15T08:33:45.113Z,11.36
2017-03-15T08:34:45.098Z,11.41
2017-03-15T08:35:45.082Z,11.5
2017-03-15T08:36:45.076Z,11.56
2017-03-15T08:37:44.753Z,11.64
2017-03-15T08:38:45.046Z,11.61
2017-03-15T08:39:45.036Z,11.68
2017-03-15T08:40:45.018Z,11.71
2017-03-15T08:41:45.011Z,11.85
2017-03-15T08:42:44.688Z,11.96
2017-03-15T08:43:44.988Z,11.99
2017-03-15T08:44:44.342Z,11.96
2017-03-15T08:45:44.965Z,12.11
2017-03-15T08:46:44.945Z,12.15
2017-03-15T08:47:44.926Z,12.26
2017-03-15T08:48:44.607Z,12.23
2017-03-15T08:49:44.906Z,12.41
2017-03-15T08:50:44.898Z,12.33
2017-03-15T08:51:44.887Z,12.37
2017-03-15T08:52:44.869Z,12.42
2017-03-15T08:53:44.889Z,12.6
2017-03-15T08:54:44.842Z,12.74
2017-03-15T08:55:44.520Z,13.06
2017-03-15T08:56:44.827Z,12.96
2017-03-15T08:57:44.807Z,13.14
2017-03-15T08:58:44.792Z,13.12
2017-03-15T08:59:44.784Z,13.2
2017-03-15T09:00:44.772Z,13.15
2017-03-15T09:01:44.757Z,13.3
2017-03-15T09:02:44.753Z,13.51
2017-03-15T09:03:44.743Z,13.61
2017-03-15T09:04:44.729Z,13.61
2017-03-15T09:05:44.712Z,13.7
2017-03-15T09:06:44.707Z,13.81
2017-03-15T09:07:44.699Z,13.94
2017-03-15T09:08:44.684Z,13.81
2017-03-15T09:09:44.675Z,13.98
2017-03-15T09:10:44.663Z,13.95
2017-03-15T09:11:44.652Z,13.98
2017-03-15T09:12:44.641Z,13.92
2017-03-15T09:13:44.835Z,13.95
2017-03-15T09:14:44.620Z,13.87
2017-03-15T09:15:44.302Z,13.77
2017-03-15T09:16:44.285Z,13.79
2017-03-15T09:17:44.597Z,13.8
2017-03-15T09:18:44.297Z,13.79
2017-03-15T09:19:44.572Z,13.83
2017-03-15T09:20:44.569Z,13.89
2017-03-15T09:21:44.241Z,13.95
2017-03-15T09:22:44.596Z,14.02
2017-03-15T09:23:44.534Z,14.07
2017-03-15T09:24:44.520Z,14.27
2017-03-15T09:25:44.514Z,14.39
2017-03-15T09:26:44.183Z,14.42
2017-03-15T09:27:44.175Z,14.49
2017-03-15T09:28:44.481Z,14.46
2017-03-15T09:29:44.154Z,14.54
2017-03-15T09:30:44.461Z,14.53
2017-03-15T09:31:44.137Z,14.43
2017-03-15T09:32:44.130Z,14.35
2017-03-15T09:33:44.432Z,14.37
2017-03-15T09:34:44.422Z,14.35
2017-03-15T09:35:44.418Z,14.43
2017-03-15T09:36:44.397Z,14.5
2017-03-15T09:37:44.077Z,14.54
2017-03-15T09:38:44.385Z,14.56
2017-03-15T09:39:44.064Z,14.62
2017-03-15T09:40:44.055Z,14.57
2017-03-15T09:41:44.039Z,14.52
2017-03-15T09:42:43.737Z,14.6
2017-03-15T09:43:44.038Z,14.52
2017-03-15T09:44:44.339Z,14.49
2017-03-15T09:45:44.016Z,14.46
2017-03-15T09:46:44.008Z,14.6
2017-03-15T09:47:43.990Z,14.49
2017-03-15T09:48:43.981Z,14.35
2017-03-15T09:49:44.281Z,14.07
2017-03-15T09:50:44.277Z,14.04
2017-03-15T09:51:43.954Z,14.09
2017-03-15T09:52:44.253Z,14.2
2017-03-15T09:53:43.928Z,14.25
2017-03-15T09:54:43.921Z,14.46
2017-03-15T09:55:44.223Z,14.53
2017-03-15T09:56:44.214Z,14.5
2017-03-15T09:57:44.219Z,14.49
2017-03-15T09:58:44.201Z,14.44
2017-03-15T09:59:43.907Z,14.57
2017-03-15T10:00:44.177Z,14.53
2017-03-15T10:01:43.863Z,14.56
2017-03-15T10:02:44.165Z,14.71
2017-03-15T10:03:44.184Z,14.84
2017-03-15T10:04:43.837Z,14.93
2017-03-15T10:05:43.823Z,14.99
2017-03-15T10:06:43.811Z,15.13
2017-03-15T10:07:43.800Z,14.98
2017-03-15T10:08:43.795Z,14.99
2017-03-15T10:09:43.793Z,15.11
2017-03-15T10:10:44.091Z,15.08
2017-03-15T10:11:43.769Z,15.21
2017-03-15T10:12:44.071Z,15.31
2017-03-15T10:13:43.754Z,15.24
2017-03-15T10:14:44.065Z,15.38
2017-03-15T10:15:43.738Z,15.36
2017-03-15T10:16:43.725Z,15.42
2017-03-15T10:17:43.728Z,15.51
2017-03-15T10:18:44.032Z,15.42
2017-03-15T10:19:44.015Z,15.39
2017-03-15T10:20:43.706Z,15.35
2017-03-15T10:21:44.050Z,15.3
2017-03-15T10:22:43.989Z,15.39
2017-03-15T10:23:43.981Z,15.38
2017-03-15T10:24:43.662Z,15.33
2017-03-15T10:25:43.976Z,15.33
2017-03-15T10:26:43.961Z,15.35
2017-03-15T10:27:43.946Z,15.45
2017-03-15T10:28:43.949Z,15.52
2017-03-15T10:29:43.931Z,15.56
2017-03-15T10:30:43.928Z,15.79
2017-03-15T10:31:43.606Z,16.2
2017-03-15T10:32:43.908Z,16.53
2017-03-15T10:33:43.906Z,16.81
2017-03-15T10:34:43.896Z,17.11
2017-03-15T10:35:43.574Z,17.18
2017-03-15T10:36:43.886Z,17.11
2017-03-15T10:37:43.885Z,17.1
2017-03-15T10:38:43.867Z,17.25
2017-03-15T10:39:43.860Z,17.54
2017-03-15T10:40:43.542Z,17.71
2017-03-15T10:41:43.850Z,17.73
2017-03-15T10:42:43.844Z,17.73
2017-03-15T10:43:43.850Z,17.69
2017-03-15T10:44:43.833Z,17.54
2017-03-15T10:45:43.825Z,17.5
2017-03-15T10:46:43.506Z,17.48
2017-03-15T10:47:43.495Z,17.18
2017-03-15T10:48:43.805Z,17.25
2017-03-15T10:49:43.799Z,17.2
2017-03-15T10:50:43.799Z,16.89
2017-03-15T10:51:43.480Z,16.63
2017-03-15T10:52:43.793Z,16.74
2017-03-15T10:53:43.785Z,16.63
2017-03-15T10:54:43.776Z,16.71
2017-03-15T10:55:43.457Z,16.89
2017-03-15T10:56:43.461Z,17.1
2017-03-15T10:57:43.760Z,17.43
2017-03-15T10:58:43.764Z,17.66
2017-03-15T10:59:43.750Z,17.88
2017-03-15T11:00:43.740Z,18.09
2017-03-15T11:01:43.117Z,18.4
2017-03-15T11:02:43.729Z,18.74
2017-03-15T11:03:43.416Z,18.62
2017-03-15T11:04:43.724Z,18.68
2017-03-15T11:05:43.722Z,18.68
2017-03-15T11:06:43.717Z,18.92
2017-03-15T11:07:43.712Z,18.83
2017-03-15T11:08:43.709Z,18.7
2017-03-15T11:09:43.707Z,18.67
2017-03-15T11:10:43.698Z,18.68
2017-03-15T11:11:43.694Z,18.64
2017-03-15T11:12:43.693Z,18.77
2017-03-15T11:13:43.583Z,18.73
2017-03-15T11:14:43.686Z,18.31
2017-03-15T11:15:43.685Z,18.58
2017-03-15T11:16:43.677Z,18.59
2017-03-15T11:17:43.671Z,18.8
2017-03-15T11:18:43.671Z,18.8
2017-03-15T11:19:43.667Z,18.82
2017-03-15T11:20:43.349Z,18.5
2017-03-15T11:21:43.664Z,18.29
2017-03-15T11:22:43.653Z,18.37
2017-03-15T11:23:43.339Z,18.54
2017-03-15T11:24:43.656Z,18.58
2017-03-15T11:25:43.644Z,18.77
2017-03-15T11:26:43.639Z,18.95
2017-03-15T11:27:43.641Z,19.15
2017-03-15T11:28:43.634Z,19.11
2017-03-15T11:29:43.318Z,19.1
2017-03-15T11:30:43.631Z,19.24
2017-03-15T11:31:43.319Z,19.48
2017-03-15T11:32:43.624Z,19.97
2017-03-15T11:33:43.625Z,19.91
2017-03-15T11:34:43.313Z,20.1
2017-03-15T11:35:43.619Z,19.91
2017-03-15T11:36:43.619Z,19.86
2017-03-15T11:37:43.615Z,19.93
2017-03-15T11:38:43.635Z,19.48
2017-03-15T11:39:43.617Z,19.86
2017-03-15T11:40:43.609Z,20.09
2017-03-15T11:41:43.607Z,19.94
2017-03-15T11:42:43.605Z,20.1
2017-03-15T11:43:43.599Z,20.13
2017-03-15T11:44:43.598Z,20.16
2017-03-15T11:45:43.598Z,20.03
2017-03-15T11:46:43.598Z,19.86
2017-03-15T11:47:43.601Z,20
2017-03-15T11:48:43.599Z,19.72
2017-03-15T11:49:43.596Z,19.35
2017-03-15T11:50:43.593Z,19.13
2017-03-15T11:51:43.278Z,19.18
2017-03-15T11:52:43.598Z,19.39
2017-03-15T11:53:43.583Z,19.87
2017-03-15T11:54:43.594Z,20.27
2017-03-15T11:55:43.588Z,20.39
2017-03-15T11:56:43.584Z,20.74
2017-03-15T11:57:43.579Z,20.84
2017-03-15T11:58:43.576Z,21.23
2017-03-15T11:59:43.587Z,21.39
2017-03-15T12:00:43.577Z,21.56
2017-03-15T12:01:43.574Z,21.59
2017-03-15T12:02:43.626Z,21.88
2017-03-15T12:03:43.576Z,21.56
2017-03-15T12:04:43.573Z,21.57
2017-03-15T12:05:43.268Z,21.63
2017-03-15T12:06:43.580Z,21.56
2017-03-15T12:07:43.574Z,21.75
2017-03-15T12:08:43.575Z,21.78
2017-03-15T12:09:43.573Z,21.66
2017-03-15T12:10:43.577Z,21.94
2017-03-15T12:11:43.574Z,21.98
2017-03-15T12:12:43.576Z,22.01
2017-03-15T12:13:43.584Z,22.09
2017-03-15T12:14:43.625Z,22.07
2017-03-15T12:15:43.263Z,22.07
2017-03-15T12:16:43.575Z,21.98
2017-03-15T12:17:43.580Z,22.07
2017-03-15T12:18:43.582Z,21.72
2017-03-15T12:19:43.588Z,21.69
2017-03-15T12:20:43.585Z,21.46
2017-03-15T12:21:43.579Z,21.13
2017-03-15T12:22:43.578Z,20.8
2017-03-15T12:23:43.581Z,20.74
2017-03-15T12:24:43.271Z,20.49
2017-03-15T12:25:43.279Z,20.65
2017-03-15T12:26:43.591Z,20.68
2017-03-15T12:27:43.581Z,20.72
2017-03-15T12:28:43.272Z,20.68
2017-03-15T12:29:43.265Z,20.56
2017-03-15T12:30:43.267Z,20.42
2017-03-15T12:31:43.579Z,20.71
2017-03-15T12:32:43.590Z,20.84
2017-03-15T12:33:43.578Z,20.64
2017-03-15T12:34:43.578Z,20.91
2017-03-15T12:35:43.584Z,20.99
2017-03-15T12:36:43.584Z,20.61
2017-03-15T12:37:43.578Z,20.68
2017-03-15T12:38:43.580Z,20.24
2017-03-15T12:39:43.263Z,20.06
2017-03-15T12:40:43.580Z,20.28
2017-03-15T12:41:43.580Z,20.27
2017-03-15T12:42:43.581Z,20.47
2017-03-15T12:43:43.590Z,20.58
2017-03-15T12:44:43.571Z,20.72
2017-03-15T12:45:43.253Z,20.87
2017-03-15T12:46:43.574Z,20.61
2017-03-15T12:47:43.579Z,20.46
2017-03-15T12:48:42.955Z,20.35
2017-03-15T12:49:43.561Z,20.47
2017-03-15T12:50:43.247Z,20.51
2017-03-15T12:51:43.563Z,20.51
2017-03-15T12:52:43.573Z,20.43
2017-03-15T12:53:43.561Z,20.49
2017-03-15T12:54:43.555Z,20.38
2017-03-15T12:55:43.562Z,20.66
2017-03-15T12:56:43.575Z,20.74
2017-03-15T12:57:43.558Z,20.87
2017-03-15T12:58:43.563Z,20.9
2017-03-15T12:59:43.559Z,20.58
2017-03-15T13:00:43.558Z,20.51
2017-03-15T13:01:43.559Z,20.98
2017-03-15T13:02:43.553Z,21.2
2017-03-15T13:03:43.554Z,21.46
2017-03-15T13:04:43.561Z,21.44
2017-03-15T13:05:43.550Z,20.27